Time;durP1;ratioP1;P1;durP2;ratioP2;P2;SDS_P1;SDS_P2;PMS_P1;PMS_P2;Temp;Humidity;BMP_temperature;BMP_pressure;BME280_temperature;BME280_humidity;BME280_pressure;Samples;Min_cycle;Max_cycle;Signal;HPM_P1;HPM_P2
2022/12/24 00:01:10;;;;;;;51.75;8.77;;;14.00;99.90;;;;;;5083547;28;20389;-58
2022/12/24 00:03:36;;;;;;;53.65;8.48;;;14.10;99.90;;;;;;5083582;28;20115;-59
2022/12/24 00:06:05;;;;;;;56.90;8.90;;;14.00;99.90;;;;;;5083554;28;20402;-59
2022/12/24 00:08:31;;;;;;;39.40;6.88;;;14.00;99.90;;;;;;5083511;28;20070;-58
2022/12/24 00:10:56;;;;;;;46.55;7.72;;;14.00;99.90;;;;;;5083280;28;20021;-58
2022/12/24 00:13:22;;;;;;;45.22;7.72;;;14.00;99.90;;;;;;5083167;28;20028;-59
2022/12/24 00:15:48;;;;;;;34.85;7.25;;;14.00;99.90;;;;;;5083306;28;20017;-59
2022/12/24 00:18:13;;;;;;;54.05;7.97;;;14.00;99.90;;;;;;5083339;28;20067;-58
2022/12/24 00:20:39;;;;;;;49.63;7.28;;;14.00;99.90;;;;;;5083344;28;20471;-58
2022/12/24 00:23:04;;;;;;;43.45;6.93;;;14.00;99.90;;;;;;5083101;28;20467;-59
2022/12/24 00:25:30;;;;;;;44.00;6.43;;;14.00;99.90;;;;;;5083250;28;20028;-58
2022/12/24 00:27:55;;;;;;;38.42;6.40;;;14.00;99.90;;;;;;5086720;28;20107;-58
2022/12/24 00:30:21;;;;;;;45.50;6.93;;;14.00;99.90;;;;;;5088730;28;20031;-58
2022/12/24 00:32:46;;;;;;;42.85;5.95;;;14.00;99.90;;;;;;5088787;28;20020;-58
2022/12/24 00:35:12;;;;;;;30.90;6.15;;;14.00;99.90;;;;;;5088585;28;20029;-59
2022/12/24 00:37:37;;;;;;;34.72;5.70;;;14.00;99.90;;;;;;5088638;28;20025;-59
2022/12/24 00:40:03;;;;;;;34.58;5.63;;;14.00;99.90;;;;;;5087390;28;20037;-59
2022/12/24 00:42:29;;;;;;;46.10;6.28;;;14.00;99.90;;;;;;5087124;28;20134;-58
2022/12/24 00:44:54;;;;;;;26.38;5.70;;;14.00;99.90;;;;;;5087037;28;20040;-59
2022/12/24 00:47:20;;;;;;;39.97;5.35;;;14.00;99.90;;;;;;5088424;28;20024;-58
2022/12/24 00:49:45;;;;;;;35.20;5.80;;;14.00;99.90;;;;;;5088230;28;20036;-58
2022/12/24 00:52:11;;;;;;;32.50;4.75;;;14.00;99.90;;;;;;5088518;28;20028;-58
2022/12/24 00:54:36;;;;;;;31.35;5.85;;;13.90;99.90;;;;;;5088262;28;20033;-58
2022/12/24 00:57:02;;;;;;;26.90;4.82;;;13.90;99.90;;;;;;5088239;28;20025;-58
2022/12/24 00:59:28;;;;;;;23.70;5.05;;;13.90;99.90;;;;;;5088125;28;20143;-58
2022/12/24 01:01:53;;;;;;;30.77;5.65;;;13.90;99.90;;;;;;5086843;28;20032;-59
2022/12/24 01:07:03;;;;;;;38.22;4.95;;;14.00;99.90;;;;;;5088166;28;20099;-59
2022/12/24 01:09:28;;;;;;;25.20;4.72;;;13.90;99.90;;;;;;5086600;28;20048;-58
2022/12/24 01:11:54;;;;;;;24.95;5.32;;;13.90;99.90;;;;;;5087843;28;20147;-58
2022/12/24 01:14:19;;;;;;;32.15;4.95;;;13.90;99.90;;;;;;5086582;28;20094;-58
2022/12/24 01:16:45;;;;;;;26.08;4.97;;;13.90;99.90;;;;;;5086636;28;20060;-58
2022/12/24 01:19:11;;;;;;;22.13;4.43;;;14.00;99.90;;;;;;5086568;28;20085;-58
2022/12/24 01:21:36;;;;;;;30.58;5.07;;;13.90;99.90;;;;;;5087842;28;20020;-58
2022/12/24 01:24:02;;;;;;;27.85;4.63;;;13.90;99.90;;;;;;5086274;28;20476;-59
2022/12/24 01:26:27;;;;;;;23.13;3.97;;;13.90;99.90;;;;;;5087696;28;20425;-58
2022/12/24 01:28:53;;;;;;;22.27;4.40;;;13.90;99.90;;;;;;5087577;28;20425;-58
2022/12/24 01:31:18;;;;;;;23.05;5.30;;;13.90;99.90;;;;;;5086234;28;20048;-58
2022/12/24 01:33:44;;;;;;;27.70;5.45;;;13.90;99.90;;;;;;5087660;28;20036;-58
2022/12/24 01:36:10;;;;;;;18.63;4.97;;;13.90;99.90;;;;;;5085903;28;20016;-58
2022/12/24 01:38:36;;;;;;;22.63;5.22;;;13.90;99.90;;;;;;5086062;28;20082;-58
2022/12/24 01:43:46;;;;;;;21.27;4.78;;;13.90;99.90;;;;;;5086154;28;20058;-58
2022/12/24 01:46:30;;;;;;;22.55;4.25;;;13.90;99.90;;;;;;5087284;28;20044;-58
2022/12/24 01:48:59;;;;;;;17.15;4.22;;;13.90;99.90;;;;;;5085953;28;20032;-58
2022/12/24 01:51:35;;;;;;;13.73;3.90;;;13.90;99.90;;;;;;5085938;28;20025;-58
2022/12/24 01:54:14;;;;;;;18.20;3.88;;;13.80;99.90;;;;;;5085971;28;20033;-59
2022/12/24 01:56:43;;;;;;;10.18;3.90;;;13.80;99.90;;;;;;5086085;28;20048;-58
2022/12/24 01:59:10;;;;;;;14.65;3.67;;;13.80;99.90;;;;;;5069111;28;20036;-58
2022/12/24 02:01:36;;;;;;;22.08;4.30;;;13.80;99.90;;;;;;5085820;28;20029;-58
2022/12/24 02:04:03;;;;;;;11.20;3.17;;;13.80;99.90;;;;;;5085688;28;20043;-58
2022/12/24 02:06:29;;;;;;;14.80;3.50;;;13.80;99.90;;;;;;5085733;28;20108;-58
2022/12/24 02:08:54;;;;;;;15.75;3.33;;;13.80;99.90;;;;;;5086852;28;20029;-58
2022/12/24 02:11:21;;;;;;;20.00;4.20;;;13.80;99.90;;;;;;5085389;28;20024;-58
2022/12/24 02:13:53;;;;;;;11.95;4.18;;;13.80;99.90;;;;;;5085434;28;20051;-58
2022/12/24 02:16:29;;;;;;;13.13;4.82;;;13.80;99.90;;;;;;5085255;28;20032;-58
2022/12/24 02:19:38;;;;;;;17.60;5.43;;;13.80;99.90;;;;;;5085388;28;20162;-58
2022/12/24 02:22:06;;;;;;;16.52;4.80;;;13.80;99.90;;;;;;5085566;28;20024;-58
2022/12/24 02:24:35;;;;;;;16.23;5.20;;;13.80;99.90;;;;;;5085423;28;20092;-58
2022/12/24 02:27:12;;;;;;;19.80;5.72;;;13.80;99.90;;;;;;5084912;28;20029;-58
2022/12/24 02:30:06;;;;;;;20.50;5.13;;;13.80;99.90;;;;;;5085121;28;20488;-58
2022/12/24 02:32:49;;;;;;;13.93;5.25;;;13.80;99.90;;;;;;5086472;28;20016;-58
2022/12/24 02:35:19;;;;;;;14.98;5.53;;;13.80;99.90;;;;;;5085068;28;20036;-58
2022/12/24 02:38:08;;;;;;;9.52;4.28;;;13.80;99.90;;;;;;5085189;28;20025;-58
2022/12/24 02:40:41;;;;;;;9.57;3.72;;;13.80;99.90;;;;;;5085187;28;20054;-58
2022/12/24 02:43:12;;;;;;;17.67;4.25;;;13.70;99.90;;;;;;5084770;28;20028;-58
2022/12/24 02:45:39;;;;;;;15.43;4.40;;;13.70;99.90;;;;;;5085020;28;20063;-58
2022/12/24 02:48:04;;;;;;;11.70;4.07;;;13.70;99.90;;;;;;5084610;28;20040;-58
2022/12/24 02:50:30;;;;;;;12.60;4.35;;;13.70;99.90;;;;;;5084310;28;20017;-58
2022/12/24 02:52:55;;;;;;;10.93;4.43;;;13.70;99.90;;;;;;5085979;28;20020;-58
2022/12/24 02:55:26;;;;;;;8.90;3.67;;;13.70;99.90;;;;;;5085958;28;20039;-58
2022/12/24 02:58:13;;;;;;;17.52;4.25;;;13.70;99.90;;;;;;5084736;28;20123;-58
2022/12/24 03:00:52;;;;;;;11.73;4.43;;;13.70;99.90;;;;;;5085896;28;20033;-58
2022/12/24 03:03:40;;;;;;;7.15;3.33;;;13.70;99.90;;;;;;5084684;28;20460;-58
2022/12/24 03:06:29;;;;;;;8.60;3.45;;;13.70;99.90;;;;;;5084604;28;20107;-58
2022/12/24 03:09:05;;;;;;;14.85;4.28;;;13.70;99.90;;;;;;5085102;28;20036;-58
2022/12/24 03:11:30;;;;;;;13.68;3.45;;;13.70;99.90;;;;;;5084879;28;20025;-58
2022/12/24 03:13:56;;;;;;;10.77;3.20;;;13.70;99.90;;;;;;5067883;28;20034;-58
2022/12/24 03:16:23;;;;;;;10.93;2.90;;;13.70;99.90;;;;;;5084619;28;20021;-58
2022/12/24 03:18:48;;;;;;;14.63;3.35;;;13.70;99.90;;;;;;5084357;28;20044;-58
2022/12/24 03:21:23;;;;;;;10.13;3.45;;;13.70;99.90;;;;;;5084026;28;20055;-58
2022/12/24 03:23:48;;;;;;;10.73;3.35;;;13.60;99.90;;;;;;5084262;28;20084;-58
2022/12/24 03:26:15;;;;;;;5.88;2.30;;;13.60;99.90;;;;;;5083830;28;20043;-58
2022/12/24 03:28:41;;;;;;;11.43;2.95;;;13.70;99.90;;;;;;5084148;28;20020;-59
2022/12/24 03:31:07;;;;;;;7.75;2.67;;;13.60;99.90;;;;;;5084114;28;20468;-58
2022/12/24 03:33:33;;;;;;;9.90;2.97;;;13.60;99.90;;;;;;5083841;28;20035;-58
2022/12/24 03:35:58;;;;;;;7.70;2.92;;;13.60;99.90;;;;;;5083876;28;20024;-58
2022/12/24 03:38:24;;;;;;;12.98;3.58;;;13.60;99.90;;;;;;5083821;28;20025;-58
2022/12/24 03:40:49;;;;;;;7.43;3.88;;;13.60;99.90;;;;;;5085066;28;20021;-58
2022/12/24 03:43:15;;;;;;;10.70;4.20;;;13.60;99.90;;;;;;5084943;28;20081;-59
2022/12/24 03:45:40;;;;;;;6.53;3.33;;;13.60;99.90;;;;;;5083601;28;20031;-58
2022/12/24 03:48:06;;;;;;;7.55;3.60;;;13.60;99.90;;;;;;5083372;28;20024;-59
2022/12/24 03:50:31;;;;;;;6.85;3.00;;;13.60;99.90;;;;;;5084928;28;20031;-58
2022/12/24 03:52:57;;;;;;;5.97;2.42;;;13.60;99.90;;;;;;5083640;28;20029;-57
2022/12/24 03:55:22;;;;;;;6.57;3.50;;;13.60;99.90;;;;;;5084794;28;20406;-58
2022/12/24 03:57:48;;;;;;;10.63;3.17;;;13.60;99.90;;;;;;5083652;28;20089;-58
2022/12/24 04:00:14;;;;;;;13.65;3.33;;;13.60;99.90;;;;;;5084860;28;20467;-58
2022/12/24 04:02:40;;;;;;;7.93;3.70;;;13.60;99.90;;;;;;5084315;28;20025;-58
2022/12/24 04:05:06;;;;;;;5.88;3.17;;;13.60;99.90;;;;;;5083575;28;20037;-58
2022/12/24 04:07:32;;;;;;;7.47;3.70;;;13.60;99.90;;;;;;5084796;28;20040;-59
2022/12/24 04:09:58;;;;;;;11.25;3.83;;;13.60;99.90;;;;;;5083441;28;20032;-59
2022/12/24 04:12:23;;;;;;;11.20;3.78;;;13.60;99.90;;;;;;5083460;28;20089;-58
2022/12/24 04:14:49;;;;;;;8.98;3.55;;;13.60;99.90;;;;;;5066678;28;20396;-59
2022/12/24 04:17:14;;;;;;;12.25;3.90;;;13.60;99.90;;;;;;5083705;28;20039;-58
2022/12/24 04:19:40;;;;;;;8.02;3.28;;;13.60;99.90;;;;;;5084632;28;20037;-58
2022/12/24 04:22:06;;;;;;;7.63;3.03;;;13.60;99.90;;;;;;5083594;28;20043;-58
2022/12/24 04:24:31;;;;;;;7.35;3.47;;;13.60;99.90;;;;;;5084839;28;20033;-59
2022/12/24 04:26:57;;;;;;;7.18;3.33;;;13.60;99.90;;;;;;5083206;28;20059;-58
2022/12/24 04:29:22;;;;;;;5.45;3.03;;;13.60;99.90;;;;;;5083176;28;20024;-59
2022/12/24 04:31:48;;;;;;;6.10;2.78;;;13.50;99.90;;;;;;5084448;28;20029;-59
2022/12/24 04:34:13;;;;;;;7.10;2.78;;;13.50;99.90;;;;;;5083122;28;20082;-58
2022/12/24 04:36:39;;;;;;;7.10;3.00;;;13.50;99.90;;;;;;5084547;28;20104;-58
2022/12/24 04:39:04;;;;;;;8.60;3.20;;;13.50;99.90;;;;;;5066333;28;20028;-58
2022/12/24 04:41:30;;;;;;;9.77;3.50;;;13.50;99.90;;;;;;5083128;28;20040;-59
2022/12/24 04:43:56;;;;;;;10.27;2.90;;;13.50;99.90;;;;;;5082825;28;20132;-59
2022/12/24 04:46:26;;;;;;;8.85;3.00;;;13.50;99.90;;;;;;5083105;28;20028;-59
2022/12/24 04:48:52;;;;;;;6.25;2.85;;;13.50;99.90;;;;;;5084543;28;20058;-59
2022/12/24 04:51:18;;;;;;;6.45;3.10;;;13.50;99.90;;;;;;5083321;28;20036;-59
2022/12/24 04:53:44;;;;;;;5.13;2.72;;;13.50;99.90;;;;;;5084460;28;20047;-58
2022/12/24 04:56:23;;;;;;;5.45;2.70;;;13.40;99.90;;;;;;5066205;28;20074;-59
2022/12/24 04:58:49;;;;;;;4.97;2.50;;;13.50;99.90;;;;;;5084306;28;20029;-58
2022/12/24 05:01:22;;;;;;;4.50;2.65;;;13.50;99.90;;;;;;5082980;28;20028;-58
2022/12/24 05:03:48;;;;;;;5.18;2.88;;;13.40;99.90;;;;;;5082982;28;20032;-58
2022/12/24 05:06:15;;;;;;;4.68;2.40;;;13.40;99.90;;;;;;5084247;28;20017;-59
2022/12/24 05:08:40;;;;;;;5.13;2.63;;;13.40;99.90;;;;;;5082759;28;20037;-58
2022/12/24 05:11:06;;;;;;;6.75;2.47;;;13.40;99.90;;;;;;5084218;28;20078;-58
2022/12/24 05:13:32;;;;;;;3.30;2.15;;;13.40;99.90;;;;;;5085232;28;20031;-59
2022/12/24 05:15:57;;;;;;;4.18;2.10;;;13.40;99.90;;;;;;5086663;28;20031;-59
2022/12/24 05:18:23;;;;;;;3.88;2.10;;;13.40;99.90;;;;;;5086393;28;20060;-59
2022/12/24 05:20:48;;;;;;;3.38;1.88;;;13.40;99.90;;;;;;5086643;28;20044;-59
2022/12/24 05:28:43;;;;;;;3.47;2.15;;;13.40;99.90;;;;;;5086522;28;20120;-58
2022/12/24 05:31:09;;;;;;;3.15;1.85;;;13.30;99.90;;;;;;5087685;28;20018;-59
2022/12/24 05:33:34;;;;;;;7.25;2.20;;;13.30;99.90;;;;;;5086312;28;20047;-59
2022/12/24 05:36:00;;;;;;;3.22;1.75;;;13.40;99.90;;;;;;5086384;28;20035;-59
2022/12/24 05:38:25;;;;;;;3.60;2.15;;;13.40;99.90;;;;;;5086013;28;20052;-59
2022/12/24 05:40:51;;;;;;;3.75;1.83;;;13.40;99.90;;;;;;5087333;28;20033;-59
2022/12/24 05:43:16;;;;;;;3.53;1.90;;;13.30;99.90;;;;;;5087007;28;20040;-59
2022/12/24 05:45:42;;;;;;;4.57;2.15;;;13.30;99.90;;;;;;5086228;28;20042;-59
2022/12/24 05:48:07;;;;;;;4.45;1.92;;;13.30;99.90;;;;;;5069182;28;20029;-59
2022/12/24 05:50:34;;;;;;;3.53;2.33;;;13.30;99.90;;;;;;5085679;28;20092;-59
2022/12/24 05:53:00;;;;;;;3.47;2.33;;;13.30;99.90;;;;;;5085849;28;20024;-59
2022/12/24 05:55:25;;;;;;;5.05;1.98;;;13.30;99.90;;;;;;5085852;28;20080;-58
2022/12/24 05:57:51;;;;;;;3.88;2.05;;;13.20;99.90;;;;;;5085957;28;20090;-59
2022/12/24 06:00:17;;;;;;;4.07;1.80;;;13.20;99.90;;;;;;5087474;28;20032;-59
2022/12/24 06:02:42;;;;;;;4.03;1.90;;;13.20;99.90;;;;;;5086983;28;20035;-59
2022/12/24 06:05:08;;;;;;;5.32;2.28;;;13.20;99.90;;;;;;5087112;28;20029;-59
2022/12/24 06:07:33;;;;;;;6.32;2.33;;;13.20;99.90;;;;;;5087050;28;20033;-59
2022/12/24 06:09:59;;;;;;;3.90;2.08;;;13.20;99.90;;;;;;5085496;28;20066;-59
2022/12/24 06:12:24;;;;;;;3.10;2.00;;;13.20;99.90;;;;;;5086984;28;20029;-59
2022/12/24 06:14:50;;;;;;;2.50;1.80;;;13.20;99.90;;;;;;5086588;28;20032;-59
2022/12/24 06:17:16;;;;;;;4.78;2.35;;;13.20;99.90;;;;;;5085431;28;20059;-59
2022/12/24 06:19:41;;;;;;;4.85;2.13;;;13.20;99.90;;;;;;5086934;28;20089;-59
2022/12/24 06:22:07;;;;;;;4.75;2.17;;;13.20;99.90;;;;;;5085364;28;20107;-59
2022/12/24 06:24:32;;;;;;;3.60;1.90;;;13.20;99.90;;;;;;5085929;28;20020;-59
2022/12/24 06:26:58;;;;;;;5.07;1.83;;;13.10;99.90;;;;;;5085116;28;20066;-58
2022/12/24 06:29:23;;;;;;;5.85;2.22;;;13.20;99.90;;;;;;5085168;28;20033;-59
2022/12/24 06:31:49;;;;;;;4.00;1.90;;;13.10;99.90;;;;;;5086636;28;20025;-59
2022/12/24 06:34:14;;;;;;;3.72;2.17;;;13.10;99.90;;;;;;5086568;28;20036;-59
2022/12/24 06:36:40;;;;;;;4.05;1.92;;;13.10;99.90;;;;;;5085110;28;20364;-58
2022/12/24 06:39:05;;;;;;;3.70;2.10;;;13.10;99.90;;;;;;5084993;28;20403;-59
2022/12/24 06:41:31;;;;;;;5.40;2.25;;;13.10;99.90;;;;;;5069526;28;20037;-57
2022/12/24 06:43:56;;;;;;;5.15;1.98;;;13.00;99.90;;;;;;5086195;28;20044;-59
2022/12/24 06:46:22;;;;;;;5.00;1.95;;;13.10;99.90;;;;;;5084841;28;20020;-59
2022/12/24 06:48:48;;;;;;;3.15;1.98;;;13.10;99.90;;;;;;5086191;28;20025;-59
2022/12/24 06:51:14;;;;;;;3.63;1.90;;;13.00;99.90;;;;;;5084898;28;20375;-59
2022/12/24 06:53:40;;;;;;;4.45;1.73;;;13.00;99.90;;;;;;5084742;28;20033;-59
2022/12/24 06:56:07;;;;;;;3.45;1.95;;;13.00;99.90;;;;;;5084827;28;20043;-59
2022/12/24 06:58:33;;;;;;;3.28;1.77;;;13.00;99.90;;;;;;5084667;28;20032;-59
2022/12/24 07:01:05;;;;;;;4.28;2.00;;;12.90;99.90;;;;;;5084607;28;20017;-58
2022/12/24 07:03:31;;;;;;;4.47;1.63;;;12.90;99.90;;;;;;5084675;28;20100;-58
2022/12/24 07:05:57;;;;;;;3.97;2.00;;;13.00;99.90;;;;;;5084575;28;20238;-59
2022/12/24 07:08:23;;;;;;;4.15;1.83;;;12.90;99.90;;;;;;5085650;28;20032;-58
2022/12/24 07:10:49;;;;;;;4.53;1.80;;;12.90;99.90;;;;;;5084316;28;20493;-59
2022/12/24 07:13:15;;;;;;;3.35;1.50;;;12.90;99.90;;;;;;5085685;28;20037;-59
2022/12/24 07:15:40;;;;;;;4.18;1.83;;;12.90;99.90;;;;;;5084296;28;20021;-59
2022/12/24 07:18:06;;;;;;;5.47;1.70;;;12.90;99.90;;;;;;5084268;28;20036;-58
2022/12/24 07:20:31;;;;;;;6.95;1.65;;;12.90;99.90;;;;;;5085487;28;20024;-59
2022/12/24 07:22:57;;;;;;;2.65;1.55;;;12.90;99.90;;;;;;5083911;28;20021;-59
2022/12/24 07:25:23;;;;;;;2.67;1.67;;;12.80;99.90;;;;;;5084176;28;20020;-59
2022/12/24 07:27:48;;;;;;;2.65;1.58;;;12.80;99.90;;;;;;5085113;28;20028;-58
2022/12/24 07:30:14;;;;;;;2.45;1.38;;;12.80;99.90;;;;;;5084077;28;20040;-59
2022/12/24 07:32:40;;;;;;;5.18;1.38;;;12.80;99.90;;;;;;5083813;28;20130;-59
2022/12/24 07:35:06;;;;;;;2.40;1.38;;;12.80;99.90;;;;;;5083911;28;20139;-59
2022/12/24 07:37:31;;;;;;;3.08;1.50;;;12.80;99.90;;;;;;5083987;28;20548;-58
2022/12/24 07:39:57;;;;;;;4.82;1.60;;;12.80;99.90;;;;;;5085299;28;20040;-59
2022/12/24 07:42:22;;;;;;;2.70;1.20;;;12.80;99.90;;;;;;5083963;28;20035;-59
2022/12/24 07:44:48;;;;;;;2.88;1.33;;;12.70;99.90;;;;;;5083613;28;20043;-59
2022/12/24 07:47:13;;;;;;;5.63;1.33;;;12.80;99.90;;;;;;5083816;28;20024;-59
2022/12/24 07:49:39;;;;;;;2.60;1.60;;;12.70;99.90;;;;;;5083778;28;20453;-59
2022/12/24 07:52:04;;;;;;;2.58;1.30;;;12.70;99.90;;;;;;5083729;28;20025;-59
2022/12/24 07:54:30;;;;;;;1.77;1.35;;;12.70;99.90;;;;;;5083748;28;20165;-59
2022/12/24 07:56:55;;;;;;;2.17;1.20;;;12.70;99.90;;;;;;5085081;28;20105;-58
2022/12/24 07:59:21;;;;;;;2.60;1.50;;;12.70;99.90;;;;;;5083436;28;20048;-59
2022/12/24 08:01:47;;;;;;;3.55;1.30;;;12.70;99.90;;;;;;5085056;28;20025;-59
2022/12/24 08:04:12;;;;;;;2.85;1.20;;;12.70;99.90;;;;;;5083514;28;20032;-58
2022/12/24 08:06:38;;;;;;;3.38;1.30;;;12.70;99.90;;;;;;5066636;28;20025;-59
2022/12/24 08:09:04;;;;;;;4.75;1.48;;;12.60;99.90;;;;;;5084967;28;20025;-59
2022/12/24 08:11:29;;;;;;;3.05;1.58;;;12.70;99.90;;;;;;5083447;28;20138;-58
2022/12/24 08:13:55;;;;;;;2.22;1.10;;;12.70;99.90;;;;;;5084868;28;20048;-59
2022/12/24 08:16:20;;;;;;;2.20;1.10;;;12.60;99.90;;;;;;5083594;28;20116;-59
2022/12/24 08:18:46;;;;;;;4.53;1.42;;;12.60;99.90;;;;;;5084738;28;20029;-59
2022/12/24 08:21:11;;;;;;;2.08;1.17;;;12.60;99.90;;;;;;5083796;28;20048;-59
2022/12/24 08:23:37;;;;;;;2.95;1.20;;;12.60;99.90;;;;;;5085245;28;20024;-59
2022/12/24 08:26:05;;;;;;;2.75;1.20;;;12.60;99.90;;;;;;5066622;28;20027;-59
2022/12/24 08:28:30;;;;;;;2.08;1.00;;;12.60;99.90;;;;;;5066663;28;20060;-59
2022/12/24 08:30:56;;;;;;;3.55;1.30;;;12.50;99.90;;;;;;5066608;28;20020;-59
2022/12/24 08:33:21;;;;;;;2.17;1.42;;;12.50;99.90;;;;;;5083389;28;20058;-58
2022/12/24 08:35:51;;;;;;;3.92;1.25;;;12.50;99.90;;;;;;5083469;28;20151;-59
2022/12/24 08:38:17;;;;;;;2.55;1.20;;;12.50;99.90;;;;;;5083185;28;20044;-58
2022/12/24 08:40:43;;;;;;;4.28;1.30;;;12.50;99.90;;;;;;5083236;28;20024;-58
2022/12/24 08:43:08;;;;;;;1.98;1.20;;;12.50;99.90;;;;;;5084197;28;20037;-58
2022/12/24 08:45:34;;;;;;;4.35;1.33;;;12.50;99.90;;;;;;5083142;28;20043;-59
2022/12/24 08:48:00;;;;;;;2.45;1.00;;;12.50;99.90;;;;;;5084809;28;20531;-58
2022/12/24 08:50:27;;;;;;;3.10;1.27;;;12.50;99.90;;;;;;5087173;28;20048;-59
2022/12/24 08:52:52;;;;;;;1.52;1.08;;;12.50;99.90;;;;;;5087228;28;20092;-59
2022/12/24 08:55:18;;;;;;;3.63;1.15;;;12.50;99.90;;;;;;5087085;28;20031;-58
2022/12/24 08:57:43;;;;;;;2.03;1.10;;;12.50;99.90;;;;;;5088212;28;20032;-59
2022/12/24 09:00:11;;;;;;;3.85;1.27;;;12.40;99.90;;;;;;5086969;28;20029;-58
2022/12/24 09:02:36;;;;;;;1.98;1.10;;;12.40;99.90;;;;;;5070385;28;20029;-59
2022/12/24 09:05:02;;;;;;;1.77;0.88;;;12.40;99.90;;;;;;5087180;28;20120;-59
2022/12/24 09:07:28;;;;;;;3.05;1.08;;;12.40;99.90;;;;;;5086976;28;20040;-58
2022/12/24 09:09:53;;;;;;;2.03;1.00;;;12.40;99.90;;;;;;5088257;28;20032;-59
2022/12/24 09:12:19;;;;;;;1.45;1.00;;;12.40;99.90;;;;;;5086855;28;20120;-58
2022/12/24 09:14:44;;;;;;;3.60;1.10;;;12.40;99.90;;;;;;5085903;28;20032;-58
2022/12/24 09:17:10;;;;;;;2.08;1.13;;;12.40;99.90;;;;;;5069753;28;20020;-59
2022/12/24 09:19:35;;;;;;;1.90;0.80;;;12.40;99.90;;;;;;5086304;28;20063;-58
2022/12/24 09:22:01;;;;;;;3.28;0.90;;;12.40;99.90;;;;;;5086986;28;20025;-58
2022/12/24 09:24:26;;;;;;;2.47;1.17;;;12.40;99.90;;;;;;5085721;28;20055;-59
2022/12/24 09:26:52;;;;;;;2.17;0.80;;;12.40;99.90;;;;;;5088097;28;20032;-58
2022/12/24 09:29:17;;;;;;;1.40;0.90;;;12.30;99.90;;;;;;5086008;28;20025;-59
2022/12/24 09:31:43;;;;;;;3.15;1.00;;;12.30;99.90;;;;;;5084760;28;20036;-58
2022/12/24 09:34:08;;;;;;;2.03;0.82;;;12.30;99.90;;;;;;5086309;28;20097;-59
2022/12/24 09:36:34;;;;;;;1.42;1.02;;;12.40;99.90;;;;;;5085480;28;20032;-58
2022/12/24 09:39:00;;;;;;;1.60;0.90;;;12.30;99.90;;;;;;5085708;28;20036;-59
2022/12/24 09:41:44;;;;;;;1.60;0.90;;;12.30;99.90;;;;;;5085626;28;20024;-59
2022/12/24 09:44:31;;;;;;;1.65;0.77;;;12.30;99.90;;;;;;5083511;28;20102;-58
2022/12/24 09:46:56;;;;;;;1.73;0.80;;;12.30;99.90;;;;;;5086085;28;20179;-59
2022/12/24 09:49:26;;;;;;;1.58;0.80;;;12.30;99.90;;;;;;5067881;28;20178;-58
2022/12/24 09:51:54;;;;;;;1.20;0.77;;;12.30;99.90;;;;;;5084876;28;20100;-58
2022/12/24 09:54:21;;;;;;;0.82;0.50;;;12.20;99.90;;;;;;5082114;28;20032;-59
2022/12/24 09:56:47;;;;;;;0.63;0.63;;;12.20;99.90;;;;;;5084509;28;20099;-58
2022/12/24 09:59:17;;;;;;;1.13;0.68;;;12.20;99.90;;;;;;5066340;28;20048;-59
2022/12/24 10:01:43;;;;;;;0.57;0.43;;;12.20;99.90;;;;;;5082226;28;20453;-59
2022/12/24 10:04:12;;;;;;;1.80;0.70;;;12.20;99.90;;;;;;5084084;28;20036;-58
2022/12/24 10:06:41;;;;;;;1.25;0.65;;;12.20;99.90;;;;;;5081993;28;20044;-59
2022/12/24 10:09:35;;;;;;;2.38;0.55;;;12.20;99.90;;;;;;5085611;28;20508;-58
2022/12/24 10:12:17;;;;;;;1.80;0.80;;;12.20;99.90;;;;;;5084580;28;20063;-59
2022/12/24 10:14:49;;;;;;;5.93;1.05;;;12.20;99.90;;;;;;5082867;28;20031;-59
2022/12/24 10:17:33;;;;;;;1.55;0.65;;;12.20;99.90;;;;;;5082817;28;20032;-59
2022/12/24 10:20:11;;;;;;;1.52;0.70;;;12.20;99.90;;;;;;5083361;28;20088;-59
2022/12/24 10:23:13;;;;;;;1.27;0.60;;;12.10;99.90;;;;;;5081496;28;20445;-59
2022/12/24 10:25:56;;;;;;;0.88;0.60;;;12.20;99.90;;;;;;5084150;28;20028;-59
2022/12/24 10:28:46;;;;;;;1.48;0.60;;;12.10;99.90;;;;;;5081931;28;20090;-59
2022/12/24 10:31:12;;;;;;;2.28;0.82;;;12.10;99.90;;;;;;5084314;28;20089;-59
2022/12/24 10:33:45;;;;;;;1.08;0.63;;;12.10;99.90;;;;;;5083772;28;20021;-59
2022/12/24 10:36:16;;;;;;;0.95;0.70;;;12.10;99.90;;;;;;5083743;28;20024;-59
2022/12/24 10:38:42;;;;;;;1.00;0.60;;;12.10;99.90;;;;;;5083688;28;20032;-59
2022/12/24 10:41:07;;;;;;;2.03;0.95;;;12.10;99.90;;;;;;5083951;28;20024;-58
2022/12/24 10:43:33;;;;;;;1.45;0.70;;;12.20;99.90;;;;;;5083393;28;20480;-58
2022/12/24 10:46:02;;;;;;;0.80;0.50;;;12.20;99.90;;;;;;5084105;28;20024;-59
2022/12/24 10:48:40;;;;;;;1.33;0.52;;;12.20;99.90;;;;;;5083302;28;20472;-59
2022/12/24 10:51:24;;;;;;;1.02;0.63;;;12.20;99.90;;;;;;5082767;28;20088;-59
2022/12/24 10:54:14;;;;;;;1.17;0.70;;;12.10;99.90;;;;;;5083993;28;20040;-59
2022/12/24 10:56:41;;;;;;;2.53;0.85;;;12.10;99.90;;;;;;5089509;28;20753;-58
2022/12/24 10:59:22;;;;;;;0.75;0.60;;;12.10;99.90;;;;;;5083288;28;20092;-58
2022/12/24 11:01:48;;;;;;;1.08;0.70;;;12.10;99.90;;;;;;5066698;28;20024;-59
2022/12/24 11:04:18;;;;;;;0.68;0.60;;;12.10;99.90;;;;;;5083399;28;20031;-59
2022/12/24 11:06:58;;;;;;;1.27;0.60;;;12.10;99.90;;;;;;5083086;28;20099;-59
2022/12/24 11:09:31;;;;;;;1.30;0.65;;;12.10;99.90;;;;;;5081767;28;20037;-59
2022/12/24 11:11:57;;;;;;;0.65;0.57;;;12.10;99.90;;;;;;5065060;28;20021;-59
2022/12/24 11:14:22;;;;;;;0.63;0.50;;;12.10;99.90;;;;;;5055754;28;20070;-59
2022/12/24 11:16:54;;;;;;;1.65;0.80;;;12.10;99.90;;;;;;5081002;28;20307;-59
2022/12/24 11:19:38;;;;;;;1.90;0.82;;;12.20;99.90;;;;;;5079604;28;20063;-57
2022/12/24 11:22:05;;;;;;;2.10;0.88;;;12.10;99.90;;;;;;5102586;28;20087;-57
2022/12/24 11:24:38;;;;;;;1.27;0.70;;;12.20;99.90;;;;;;5084125;28;20070;-59
2022/12/24 11:27:28;;;;;;;1.92;0.77;;;12.10;99.90;;;;;;5083765;28;20050;-59
2022/12/24 11:30:13;;;;;;;1.40;0.80;;;12.20;99.90;;;;;;5082558;28;20020;-58
2022/12/24 11:32:39;;;;;;;1.10;0.55;;;12.20;99.90;;;;;;5081949;28;20043;-59
2022/12/24 11:35:06;;;;;;;1.02;0.70;;;12.10;99.90;;;;;;5083577;28;20146;-59
2022/12/24 11:37:32;;;;;;;0.70;0.50;;;12.20;99.90;;;;;;5083532;28;20027;-58
2022/12/24 11:39:59;;;;;;;0.93;0.60;;;12.20;99.90;;;;;;5083382;28;20476;-59
2022/12/24 11:42:33;;;;;;;2.50;0.80;;;12.20;99.90;;;;;;5083683;28;20052;-58
2022/12/24 11:45:00;;;;;;;0.52;0.45;;;12.20;99.90;;;;;;5114928;28;20101;-59
2022/12/24 11:47:53;;;;;;;1.65;0.88;;;12.20;99.90;;;;;;5083230;28;20044;-59
2022/12/24 11:50:26;;;;;;;1.85;0.90;;;12.20;99.90;;;;;;5082263;28;20032;-59
2022/12/24 11:53:04;;;;;;;1.40;0.70;;;12.20;99.90;;;;;;5083126;28;20138;-59
2022/12/24 11:55:42;;;;;;;1.23;0.60;;;12.20;99.90;;;;;;5081021;28;20035;-59
2022/12/24 11:58:40;;;;;;;3.15;0.70;;;12.20;99.90;;;;;;5080583;28;20020;-59
2022/12/24 12:01:31;;;;;;;1.55;0.90;;;12.20;99.90;;;;;;5082006;28;20111;-59
2022/12/24 12:04:02;;;;;;;1.25;0.80;;;12.20;99.90;;;;;;5082137;28;20021;-58
2022/12/24 12:06:28;;;;;;;1.38;0.70;;;12.20;99.90;;;;;;5082274;28;20052;-59
2022/12/24 12:08:59;;;;;;;2.10;0.90;;;12.20;99.90;;;;;;5082420;28;20032;-59
2022/12/24 12:11:24;;;;;;;1.23;0.68;;;12.20;99.90;;;;;;5082389;28;20119;-59
2022/12/24 12:13:50;;;;;;;2.47;0.68;;;12.20;99.90;;;;;;5083120;28;20514;-59
2022/12/24 12:16:59;;;;;;;4.95;0.95;;;12.20;99.90;;;;;;5082315;28;20036;-59
2022/12/24 12:19:24;;;;;;;2.08;1.00;;;12.20;99.90;;;;;;5081849;28;20032;-59
2022/12/24 12:21:49;;;;;;;1.65;0.93;;;12.20;99.90;;;;;;5081576;28;20108;-61
2022/12/24 12:24:27;;;;;;;2.25;0.68;;;12.20;99.90;;;;;;5084494;28;20055;-59
2022/12/24 12:27:04;;;;;;;1.77;0.73;;;12.20;99.90;;;;;;5097160;28;20044;-59
2022/12/24 12:29:32;;;;;;;1.02;0.60;;;12.20;99.90;;;;;;5096438;28;20092;-59
2022/12/24 12:32:12;;;;;;;1.58;0.70;;;12.20;99.90;;;;;;5103600;28;20035;-59
2022/12/24 12:34:43;;;;;;;2.00;0.73;;;12.20;99.90;;;;;;5103470;28;20025;-59
2022/12/24 12:37:13;;;;;;;3.03;0.75;;;12.20;99.90;;;;;;5099838;28;20032;-59
2022/12/24 12:39:39;;;;;;;1.45;0.70;;;12.20;99.90;;;;;;5107041;28;20039;-58
2022/12/24 12:42:30;;;;;;;2.33;1.02;;;12.20;99.90;;;;;;5102990;28;20476;-58
2022/12/24 12:44:59;;;;;;;1.15;0.65;;;12.20;99.90;;;;;;5102267;28;20040;-59
2022/12/24 12:47:43;;;;;;;4.35;1.40;;;12.20;99.90;;;;;;5118528;28;20028;-59
2022/12/24 12:50:28;;;;;;;2.83;1.00;;;12.20;99.90;;;;;;5103410;28;20107;-58
2022/12/24 12:53:06;;;;;;;18.13;2.20;;;12.20;99.90;;;;;;5103387;28;20379;-58
2022/12/24 12:56:10;;;;;;;3.80;1.10;;;12.20;99.90;;;;;;5099253;28;20039;-58
2022/12/24 12:58:42;;;;;;;12.00;1.40;;;12.10;99.90;;;;;;5102328;28;20040;-59
2022/12/24 13:01:21;;;;;;;4.40;1.10;;;12.20;99.90;;;;;;5103337;28;20154;-59
2022/12/24 13:04:12;;;;;;;6.32;0.90;;;12.10;99.90;;;;;;5091999;28;20448;-58